sensor_id;sensor_type;location;lat;lon;timestamp;pressure;altitude;pressure_sealevel;temperature;humidity
55070;BME280;40967;52.070;8.596;2022-08-19T00:02:02;100267.00;;;20.49;71.63
55070;BME280;40967;52.070;8.596;2022-08-19T00:04:30;100274.81;;;20.47;71.62
55070;BME280;40967;52.070;8.596;2022-08-19T00:06:57;100272.25;;;20.42;71.73
55070;BME280;40967;52.070;8.596;2022-08-19T00:09:23;100271.44;;;20.29;72.56
55070;BME280;40967;52.070;8.596;2022-08-19T00:11:50;100274.41;;;20.24;72.69
55070;BME280;40967;52.070;8.596;2022-08-19T00:14:16;100263.13;;;20.17;73.00
55070;BME280;40967;52.070;8.596;2022-08-19T00:16:44;100276.28;;;20.11;73.18
55070;BME280;40967;52.070;8.596;2022-08-19T00:19:10;100270.78;;;20.11;73.14
55070;BME280;40967;52.070;8.596;2022-08-19T00:21:35;100271.91;;;20.10;72.93
55070;BME280;40967;52.070;8.596;2022-08-19T00:24:06;100274.34;;;20.12;72.69
55070;BME280;40967;52.070;8.596;2022-08-19T00:26:31;100269.81;;;20.07;72.66
55070;BME280;40967;52.070;8.596;2022-08-19T00:28:57;100278.91;;;20.08;72.82
55070;BME280;40967;52.070;8.596;2022-08-19T00:31:22;100279.13;;;20.03;73.05
55070;BME280;40967;52.070;8.596;2022-08-19T00:33:48;100267.56;;;19.89;74.19
55070;BME280;40967;52.070;8.596;2022-08-19T00:36:16;100262.94;;;19.81;75.02
55070;BME280;40967;52.070;8.596;2022-08-19T00:38:41;100259.13;;;19.73;75.19
55070;BME280;40967;52.070;8.596;2022-08-19T00:41:10;100250.59;;;19.66;75.12
55070;BME280;40967;52.070;8.596;2022-08-19T00:43:37;100249.44;;;19.67;75.37
55070;BME280;40967;52.070;8.596;2022-08-19T00:46:04;100256.31;;;19.61;75.67
55070;BME280;40967;52.070;8.596;2022-08-19T00:48:30;100253.56;;;19.61;75.77
55070;BME280;40967;52.070;8.596;2022-08-19T00:50:57;100260.19;;;19.60;75.55
55070;BME280;40967;52.070;8.596;2022-08-19T00:53:26;100251.94;;;19.60;75.26
55070;BME280;40967;52.070;8.596;2022-08-19T00:55:53;100245.78;;;19.63;75.20
55070;BME280;40967;52.070;8.596;2022-08-19T00:58:22;100252.53;;;19.66;75.01
55070;BME280;40967;52.070;8.596;2022-08-19T01:00:49;100259.34;;;19.68;75.13
55070;BME280;40967;52.070;8.596;2022-08-19T01:03:18;100260.47;;;19.67;75.27
55070;BME280;40967;52.070;8.596;2022-08-19T01:05:45;100262.44;;;19.67;75.11
55070;BME280;40967;52.070;8.596;2022-08-19T01:08:14;100255.97;;;19.63;75.05
55070;BME280;40967;52.070;8.596;2022-08-19T01:10:47;100253.22;;;19.63;75.13
55070;BME280;40967;52.070;8.596;2022-08-19T01:13:18;100255.84;;;19.59;74.90
55070;BME280;40967;52.070;8.596;2022-08-19T01:15:48;100241.59;;;19.57;74.87
55070;BME280;40967;52.070;8.596;2022-08-19T01:18:17;100245.38;;;19.53;74.99
55070;BME280;40967;52.070;8.596;2022-08-19T01:20:43;100238.38;;;19.55;75.04
55070;BME280;40967;52.070;8.596;2022-08-19T01:23:09;100235.47;;;19.52;74.92
55070;BME280;40967;52.070;8.596;2022-08-19T01:25:47;100225.84;;;19.46;75.34
55070;BME280;40967;52.070;8.596;2022-08-19T01:28:17;100223.94;;;19.38;76.61
55070;BME280;40967;52.070;8.596;2022-08-19T01:30:43;100226.56;;;19.25;77.52
55070;BME280;40967;52.070;8.596;2022-08-19T01:33:09;100228.13;;;19.14;77.92
55070;BME280;40967;52.070;8.596;2022-08-19T01:35:35;100232.00;;;19.13;77.83
55070;BME280;40967;52.070;8.596;2022-08-19T01:38:07;100224.91;;;19.12;77.85
55070;BME280;40967;52.070;8.596;2022-08-19T01:40:36;100228.44;;;19.13;77.64
55070;BME280;40967;52.070;8.596;2022-08-19T01:43:04;100219.06;;;19.14;77.66
55070;BME280;40967;52.070;8.596;2022-08-19T01:45:31;100212.59;;;19.10;77.97
55070;BME280;40967;52.070;8.596;2022-08-19T01:47:57;100208.94;;;19.06;78.22
55070;BME280;40967;52.070;8.596;2022-08-19T01:50:24;100198.63;;;18.94;79.45
55070;BME280;40967;52.070;8.596;2022-08-19T01:52:49;100189.47;;;18.82;80.21
55070;BME280;40967;52.070;8.596;2022-08-19T01:55:18;100184.66;;;18.79;80.30
55070;BME280;40967;52.070;8.596;2022-08-19T01:57:49;100185.47;;;18.79;80.05
55070;BME280;40967;52.070;8.596;2022-08-19T02:00:19;100185.59;;;18.83;79.78
55070;BME280;40967;52.070;8.596;2022-08-19T02:02:45;100189.16;;;18.83;79.74
55070;BME280;40967;52.070;8.596;2022-08-19T02:05:11;100170.09;;;18.78;79.47
55070;BME280;40967;52.070;8.596;2022-08-19T02:07:38;100185.94;;;18.81;79.63
55070;BME280;40967;52.070;8.596;2022-08-19T02:10:09;100182.63;;;18.67;80.66
55070;BME280;40967;52.070;8.596;2022-08-19T02:12:35;100182.03;;;18.53;81.43
55070;BME280;40967;52.070;8.596;2022-08-19T02:15:01;100180.00;;;18.42;82.06
55070;BME280;40967;52.070;8.596;2022-08-19T02:17:28;100179.00;;;18.38;82.53
55070;BME280;40967;52.070;8.596;2022-08-19T02:19:55;100184.34;;;18.34;82.86
55070;BME280;40967;52.070;8.596;2022-08-19T02:22:22;100183.38;;;18.30;82.39
55070;BME280;40967;52.070;8.596;2022-08-19T02:24:47;100188.84;;;18.39;81.94
55070;BME280;40967;52.070;8.596;2022-08-19T02:27:13;100186.91;;;18.39;81.82
55070;BME280;40967;52.070;8.596;2022-08-19T02:29:39;100191.09;;;18.37;82.09
55070;BME280;40967;52.070;8.596;2022-08-19T02:32:04;100191.44;;;18.35;81.91
55070;BME280;40967;52.070;8.596;2022-08-19T02:34:30;100202.56;;;18.39;81.45
55070;BME280;40967;52.070;8.596;2022-08-19T02:36:55;100201.97;;;18.42;80.78
55070;BME280;40967;52.070;8.596;2022-08-19T02:39:21;100202.56;;;18.47;80.42
55070;BME280;40967;52.070;8.596;2022-08-19T02:41:46;100195.97;;;18.48;79.77
55070;BME280;40967;52.070;8.596;2022-08-19T02:44:11;100185.50;;;18.42;79.86
55070;BME280;40967;52.070;8.596;2022-08-19T02:46:37;100186.91;;;18.39;80.55
55070;BME280;40967;52.070;8.596;2022-08-19T02:49:05;100193.41;;;18.26;81.93
55070;BME280;40967;52.070;8.596;2022-08-19T02:51:33;100185.69;;;18.20;81.76
55070;BME280;40967;52.070;8.596;2022-08-19T02:53:59;100193.13;;;18.19;81.65
55070;BME280;40967;52.070;8.596;2022-08-19T02:56:25;100192.94;;;18.24;80.94
55070;BME280;40967;52.070;8.596;2022-08-19T02:58:53;100193.56;;;18.30;80.78
55070;BME280;40967;52.070;8.596;2022-08-19T03:01:24;100190.81;;;18.30;80.30
55070;BME280;40967;52.070;8.596;2022-08-19T03:03:51;100202.56;;;18.39;79.91
55070;BME280;40967;52.070;8.596;2022-08-19T03:06:17;100194.66;;;18.37;79.90
55070;BME280;40967;52.070;8.596;2022-08-19T03:08:45;100199.53;;;18.40;79.89
55070;BME280;40967;52.070;8.596;2022-08-19T03:13:47;100212.44;;;18.40;79.59
55070;BME280;40967;52.070;8.596;2022-08-19T03:16:17;100221.16;;;18.33;80.50
55070;BME280;40967;52.070;8.596;2022-08-19T03:18:44;100214.09;;;18.24;80.84
55070;BME280;40967;52.070;8.596;2022-08-19T03:21:18;100213.94;;;18.20;81.42
55070;BME280;40967;52.070;8.596;2022-08-19T03:23:44;100202.84;;;18.08;81.85
55070;BME280;40967;52.070;8.596;2022-08-19T03:26:09;100211.91;;;18.00;82.77
55070;BME280;40967;52.070;8.596;2022-08-19T03:28:35;100205.78;;;17.94;82.83
55070;BME280;40967;52.070;8.596;2022-08-19T03:31:06;100193.03;;;17.73;83.97
55070;BME280;40967;52.070;8.596;2022-08-19T03:33:33;100218.88;;;17.80;83.99
55070;BME280;40967;52.070;8.596;2022-08-19T03:36:12;100221.28;;;17.82;83.90
55070;BME280;40967;52.070;8.596;2022-08-19T03:38:42;100227.75;;;17.86;83.33
55070;BME280;40967;52.070;8.596;2022-08-19T03:41:11;100227.44;;;17.87;82.86
55070;BME280;40967;52.070;8.596;2022-08-19T03:43:37;100220.00;;;17.79;82.95
55070;BME280;40967;52.070;8.596;2022-08-19T03:46:09;100216.75;;;17.69;84.27
55070;BME280;40967;52.070;8.596;2022-08-19T03:48:37;100207.09;;;17.54;85.34
55070;BME280;40967;52.070;8.596;2022-08-19T03:51:04;100206.78;;;17.47;86.17
55070;BME280;40967;52.070;8.596;2022-08-19T03:53:31;100206.25;;;17.37;87.16
55070;BME280;40967;52.070;8.596;2022-08-19T03:55:58;100200.28;;;17.26;87.91
55070;BME280;40967;52.070;8.596;2022-08-19T03:58:28;100203.81;;;17.18;89.02
55070;BME280;40967;52.070;8.596;2022-08-19T04:00:55;100204.59;;;17.10;90.24
55070;BME280;40967;52.070;8.596;2022-08-19T04:03:22;100205.41;;;17.11;90.68
55070;BME280;40967;52.070;8.596;2022-08-19T04:05:47;100217.69;;;17.13;90.46
55070;BME280;40967;52.070;8.596;2022-08-19T04:08:14;100226.03;;;17.08;90.79
55070;BME280;40967;52.070;8.596;2022-08-19T04:10:40;100224.44;;;17.07;91.03
55070;BME280;40967;52.070;8.596;2022-08-19T04:13:07;100218.94;;;16.98;91.08
55070;BME280;40967;52.070;8.596;2022-08-19T04:15:38;100222.97;;;17.01;91.05
55070;BME280;40967;52.070;8.596;2022-08-19T04:18:07;100228.28;;;16.97;91.10
55070;BME280;40967;52.070;8.596;2022-08-19T04:20:39;100227.81;;;16.95;91.29
55070;BME280;40967;52.070;8.596;2022-08-19T04:23:05;100220.84;;;16.89;91.57
55070;BME280;40967;52.070;8.596;2022-08-19T04:25:43;100222.00;;;16.97;91.04
55070;BME280;40967;52.070;8.596;2022-08-19T04:28:11;100216.53;;;16.97;90.11
55070;BME280;40967;52.070;8.596;2022-08-19T04:30:41;100222.69;;;17.11;89.05
55070;BME280;40967;52.070;8.596;2022-08-19T04:33:09;100213.81;;;17.14;88.39
55070;BME280;40967;52.070;8.596;2022-08-19T04:35:40;100224.13;;;17.26;87.43
55070;BME280;40967;52.070;8.596;2022-08-19T04:38:06;100219.16;;;17.28;86.91
55070;BME280;40967;52.070;8.596;2022-08-19T04:40:32;100223.38;;;17.34;86.44
55070;BME280;40967;52.070;8.596;2022-08-19T04:43:16;100216.25;;;17.33;85.81
55070;BME280;40967;52.070;8.596;2022-08-19T04:45:43;100237.09;;;17.42;85.70
55070;BME280;40967;52.070;8.596;2022-08-19T04:48:08;100231.91;;;17.41;86.01
55070;BME280;40967;52.070;8.596;2022-08-19T04:50:35;100232.88;;;17.36;86.83
55070;BME280;40967;52.070;8.596;2022-08-19T04:53:01;100234.78;;;17.27;87.78
55070;BME280;40967;52.070;8.596;2022-08-19T04:55:26;100227.19;;;17.16;88.91
55070;BME280;40967;52.070;8.596;2022-08-19T04:57:52;100235.91;;;17.09;89.58
55070;BME280;40967;52.070;8.596;2022-08-19T05:00:17;100237.19;;;17.12;89.14
55070;BME280;40967;52.070;8.596;2022-08-19T05:02:43;100238.66;;;17.18;88.57
55070;BME280;40967;52.070;8.596;2022-08-19T05:05:08;100236.72;;;17.18;88.62
55070;BME280;40967;52.070;8.596;2022-08-19T05:07:34;100239.16;;;17.20;88.93
55070;BME280;40967;52.070;8.596;2022-08-19T05:10:00;100230.75;;;17.16;88.81
55070;BME280;40967;52.070;8.596;2022-08-19T05:12:26;100245.13;;;17.22;89.16
55070;BME280;40967;52.070;8.596;2022-08-19T05:14:53;100239.63;;;17.22;89.68
55070;BME280;40967;52.070;8.596;2022-08-19T05:17:19;100235.25;;;17.21;89.86
55070;BME280;40967;52.070;8.596;2022-08-19T05:19:44;100231.88;;;17.24;90.35
55070;BME280;40967;52.070;8.596;2022-08-19T05:22:29;100232.84;;;17.28;89.53
55070;BME280;40967;52.070;8.596;2022-08-19T05:24:58;100236.25;;;17.33;89.37
55070;BME280;40967;52.070;8.596;2022-08-19T05:27:23;100229.47;;;17.39;89.16
55070;BME280;40967;52.070;8.596;2022-08-19T05:29:49;100242.94;;;17.49;88.81
55070;BME280;40967;52.070;8.596;2022-08-19T05:32:14;100234.22;;;17.56;87.94
55070;BME280;40967;52.070;8.596;2022-08-19T05:34:40;100225.00;;;17.60;87.40
55070;BME280;40967;52.070;8.596;2022-08-19T05:37:05;100231.78;;;17.71;87.22
55070;BME280;40967;52.070;8.596;2022-08-19T05:39:34;100235.84;;;17.74;87.65
55070;BME280;40967;52.070;8.596;2022-08-19T05:42:06;100235.19;;;17.77;87.43
55070;BME280;40967;52.070;8.596;2022-08-19T05:44:34;100242.28;;;17.78;88.39
55070;BME280;40967;52.070;8.596;2022-08-19T05:47:03;100241.00;;;17.75;88.91
55070;BME280;40967;52.070;8.596;2022-08-19T05:49:30;100232.09;;;17.78;89.17
55070;BME280;40967;52.070;8.596;2022-08-19T05:51:56;100235.00;;;17.82;88.61
55070;BME280;40967;52.070;8.596;2022-08-19T05:54:23;100231.63;;;17.85;88.48
55070;BME280;40967;52.070;8.596;2022-08-19T05:56:50;100225.31;;;17.84;88.51
55070;BME280;40967;52.070;8.596;2022-08-19T05:59:18;100223.22;;;17.90;88.16
55070;BME280;40967;52.070;8.596;2022-08-19T06:01:45;100218.53;;;17.90;88.32
55070;BME280;40967;52.070;8.596;2022-08-19T06:04:12;100220.13;;;17.91;88.57
55070;BME280;40967;52.070;8.596;2022-08-19T06:06:39;100221.91;;;17.96;87.90
55070;BME280;40967;52.070;8.596;2022-08-19T06:09:06;100218.84;;;17.97;87.82
55070;BME280;40967;52.070;8.596;2022-08-19T06:11:37;100228.69;;;17.98;87.87
55070;BME280;40967;52.070;8.596;2022-08-19T06:14:06;100229.16;;;18.00;88.25
55070;BME280;40967;52.070;8.596;2022-08-19T06:16:35;100224.66;;;18.04;87.83
55070;BME280;40967;52.070;8.596;2022-08-19T06:19:03;100230.78;;;18.10;87.29
55070;BME280;40967;52.070;8.596;2022-08-19T06:21:30;100221.56;;;18.14;87.39
55070;BME280;40967;52.070;8.596;2022-08-19T06:23:56;100230.91;;;18.22;87.19
55070;BME280;40967;52.070;8.596;2022-08-19T06:26:22;100233.81;;;18.26;86.92
55070;BME280;40967;52.070;8.596;2022-08-19T06:28:49;100232.00;;;18.30;86.71
55070;BME280;40967;52.070;8.596;2022-08-19T06:31:18;100235.25;;;18.32;87.04
55070;BME280;40967;52.070;8.596;2022-08-19T06:33:45;100228.28;;;18.34;87.02
55070;BME280;40967;52.070;8.596;2022-08-19T06:36:38;100226.03;;;18.45;86.89
55070;BME280;40967;52.070;8.596;2022-08-19T06:39:07;100236.63;;;18.63;86.17
55070;BME280;40967;52.070;8.596;2022-08-19T06:41:35;100241.25;;;18.80;86.02
55070;BME280;40967;52.070;8.596;2022-08-19T06:44:01;100226.94;;;18.95;85.00
55070;BME280;40967;52.070;8.596;2022-08-19T06:46:27;100224.13;;;19.03;84.31
55070;BME280;40967;52.070;8.596;2022-08-19T06:48:53;100240.25;;;19.13;83.38
55070;BME280;40967;52.070;8.596;2022-08-19T06:51:20;100243.63;;;19.19;83.00
55070;BME280;40967;52.070;8.596;2022-08-19T06:53:47;100237.78;;;19.20;82.63
55070;BME280;40967;52.070;8.596;2022-08-19T06:56:14;100231.91;;;19.31;83.05
55070;BME280;40967;52.070;8.596;2022-08-19T06:58:40;100242.53;;;19.41;82.41
55070;BME280;40967;52.070;8.596;2022-08-19T07:01:06;100231.59;;;19.53;82.31
55070;BME280;40967;52.070;8.596;2022-08-19T07:03:33;100251.34;;;19.75;82.15
55070;BME280;40967;52.070;8.596;2022-08-19T07:06:12;100251.03;;;20.09;81.41
55070;BME280;40967;52.070;8.596;2022-08-19T07:08:38;100242.50;;;20.35;79.85
55070;BME280;40967;52.070;8.596;2022-08-19T07:11:08;100249.91;;;20.43;78.42
55070;BME280;40967;52.070;8.596;2022-08-19T07:13:35;100255.72;;;20.42;78.25
55070;BME280;40967;52.070;8.596;2022-08-19T07:16:16;100257.13;;;20.48;78.02
55070;BME280;40967;52.070;8.596;2022-08-19T07:18:42;100254.38;;;20.48;77.80
55070;BME280;40967;52.070;8.596;2022-08-19T07:21:12;100260.72;;;20.60;77.60
55070;BME280;40967;52.070;8.596;2022-08-19T07:23:38;100255.00;;;20.77;77.34
55070;BME280;40967;52.070;8.596;2022-08-19T07:26:14;100261.69;;;20.88;76.44
55070;BME280;40967;52.070;8.596;2022-08-19T07:28:40;100254.69;;;21.03;76.82
55070;BME280;40967;52.070;8.596;2022-08-19T07:31:10;100255.38;;;21.24;75.79
55070;BME280;40967;52.070;8.596;2022-08-19T07:33:36;100256.16;;;21.36;74.85
55070;BME280;40967;52.070;8.596;2022-08-19T07:36:06;100272.81;;;21.52;74.52
55070;BME280;40967;52.070;8.596;2022-08-19T07:38:33;100277.09;;;21.77;74.17
55070;BME280;40967;52.070;8.596;2022-08-19T07:40:59;100288.03;;;21.98;73.69
55070;BME280;40967;52.070;8.596;2022-08-19T07:43:26;100287.13;;;22.21;72.51
55070;BME280;40967;52.070;8.596;2022-08-19T07:45:53;100290.38;;;22.39;71.14
55070;BME280;40967;52.070;8.596;2022-08-19T07:48:23;100298.16;;;22.49;70.44
55070;BME280;40967;52.070;8.596;2022-08-19T07:50:52;100295.81;;;22.79;70.80
55070;BME280;40967;52.070;8.596;2022-08-19T07:53:17;100287.22;;;23.15;69.47
55070;BME280;40967;52.070;8.596;2022-08-19T07:55:44;100295.00;;;23.09;68.03
55070;BME280;40967;52.070;8.596;2022-08-19T07:58:13;100306.59;;;23.15;67.93
55070;BME280;40967;52.070;8.596;2022-08-19T08:00:39;100309.53;;;23.22;67.05
55070;BME280;40967;52.070;8.596;2022-08-19T08:03:04;100301.63;;;23.36;67.02
55070;BME280;40967;52.070;8.596;2022-08-19T08:05:29;100299.78;;;23.59;66.52
55070;BME280;40967;52.070;8.596;2022-08-19T08:08:13;100304.91;;;23.76;65.22
55070;BME280;40967;52.070;8.596;2022-08-19T08:10:48;100317.91;;;23.91;64.67
55070;BME280;40967;52.070;8.596;2022-08-19T08:13:13;100321.56;;;23.95;64.35
55070;BME280;40967;52.070;8.596;2022-08-19T08:15:39;100318.75;;;24.11;64.30
55070;BME280;40967;52.070;8.596;2022-08-19T08:18:04;100323.41;;;24.26;63.30
55070;BME280;40967;52.070;8.596;2022-08-19T08:20:30;100317.38;;;24.20;63.19
55070;BME280;40967;52.070;8.596;2022-08-19T08:22:55;100328.41;;;24.17;63.16
55070;BME280;40967;52.070;8.596;2022-08-19T08:25:39;100313.50;;;24.25;62.20
55070;BME280;40967;52.070;8.596;2022-08-19T08:28:05;100317.41;;;24.24;61.80
55070;BME280;40967;52.070;8.596;2022-08-19T08:30:32;100325.47;;;24.29;62.23
55070;BME280;40967;52.070;8.596;2022-08-19T08:33:00;100312.50;;;24.55;61.96
55070;BME280;40967;52.070;8.596;2022-08-19T08:35:25;100315.59;;;24.92;61.24
55070;BME280;40967;52.070;8.596;2022-08-19T08:37:53;100307.91;;;25.31;60.21
55070;BME280;40967;52.070;8.596;2022-08-19T08:40:39;100312.75;;;25.60;59.00
55070;BME280;40967;52.070;8.596;2022-08-19T08:46:00;100312.75;;;26.49;56.14
55070;BME280;40967;52.070;8.596;2022-08-19T08:51:18;100308.47;;;26.58;55.16
55070;BME280;40967;52.070;8.596;2022-08-19T08:53:48;100313.66;;;26.23;55.63
55070;BME280;40967;52.070;8.596;2022-08-19T08:56:15;100304.78;;;26.47;55.49
55070;BME280;40967;52.070;8.596;2022-08-19T08:59:07;100310.47;;;26.95;54.13
55070;BME280;40967;52.070;8.596;2022-08-19T09:01:41;100314.84;;;27.43;52.94
55070;BME280;40967;52.070;8.596;2022-08-19T09:04:20;100315.53;;;27.83;51.09
55070;BME280;40967;52.070;8.596;2022-08-19T09:07:06;100311.75;;;28.20;49.94
55070;BME280;40967;52.070;8.596;2022-08-19T09:09:40;100305.69;;;28.04;49.68
55070;BME280;40967;52.070;8.596;2022-08-19T09:17:06;100306.63;;;28.43;48.50
55070;BME280;40967;52.070;8.596;2022-08-19T09:19:35;100302.47;;;27.98;47.93
55070;BME280;40967;52.070;8.596;2022-08-19T09:22:01;100299.13;;;27.78;48.82
55070;BME280;40967;52.070;8.596;2022-08-19T09:24:26;100311.34;;;27.56;48.76
55070;BME280;40967;52.070;8.596;2022-08-19T09:26:52;100296.97;;;27.47;48.82
55070;BME280;40967;52.070;8.596;2022-08-19T09:29:17;100310.56;;;27.59;48.33
55070;BME280;40967;52.070;8.596;2022-08-19T09:31:42;100313.25;;;28.03;47.68
55070;BME280;40967;52.070;8.596;2022-08-19T09:34:08;100313.00;;;28.43;46.67
55070;BME280;40967;52.070;8.596;2022-08-19T09:36:34;100305.94;;;28.98;46.04
55070;BME280;40967;52.070;8.596;2022-08-19T09:39:03;100304.41;;;29.33;44.38
55070;BME280;40967;52.070;8.596;2022-08-19T09:41:29;100296.78;;;29.23;44.62
55070;BME280;40967;52.070;8.596;2022-08-19T09:43:55;100299.56;;;29.44;44.87
55070;BME280;40967;52.070;8.596;2022-08-19T09:46:23;100306.38;;;29.67;44.04
55070;BME280;40967;52.070;8.596;2022-08-19T09:48:50;100304.75;;;28.96;42.96
55070;BME280;40967;52.070;8.596;2022-08-19T09:51:22;100318.56;;;28.40;43.92
55070;BME280;40967;52.070;8.596;2022-08-19T09:53:48;100309.66;;;27.99;45.12
55070;BME280;40967;52.070;8.596;2022-08-19T09:56:20;100307.13;;;27.80;45.71
55070;BME280;40967;52.070;8.596;2022-08-19T09:58:47;100312.09;;;28.08;46.36
55070;BME280;40967;52.070;8.596;2022-08-19T10:01:21;100306.31;;;28.79;44.84
55070;BME280;40967;52.070;8.596;2022-08-19T10:03:49;100307.13;;;29.61;43.08
55070;BME280;40967;52.070;8.596;2022-08-19T10:06:17;100301.00;;;30.11;42.11
55070;BME280;40967;52.070;8.596;2022-08-19T10:08:42;100300.97;;;30.29;41.00
55070;BME280;40967;52.070;8.596;2022-08-19T10:11:08;100299.13;;;30.70;40.39
55070;BME280;40967;52.070;8.596;2022-08-19T10:13:34;100288.41;;;31.16;39.37
55070;BME280;40967;52.070;8.596;2022-08-19T10:16:27;100298.03;;;31.60;39.08
55070;BME280;40967;52.070;8.596;2022-08-19T10:18:53;100298.81;;;31.97;38.18
55070;BME280;40967;52.070;8.596;2022-08-19T10:21:22;100306.13;;;32.21;37.72
55070;BME280;40967;52.070;8.596;2022-08-19T10:23:49;100300.44;;;32.28;37.70
55070;BME280;40967;52.070;8.596;2022-08-19T10:26:19;100308.72;;;32.09;37.82
55070;BME280;40967;52.070;8.596;2022-08-19T10:28:45;100291.56;;;31.22;38.27
55070;BME280;40967;52.070;8.596;2022-08-19T10:31:14;100298.53;;;30.38;39.75
55070;BME280;40967;52.070;8.596;2022-08-19T10:33:40;100297.69;;;30.45;39.58
55070;BME280;40967;52.070;8.596;2022-08-19T10:36:09;100292.09;;;30.41;39.51
55070;BME280;40967;52.070;8.596;2022-08-19T10:38:36;100282.34;;;29.77;39.86
55070;BME280;40967;52.070;8.596;2022-08-19T10:41:15;100285.22;;;29.35;41.05
55070;BME280;40967;52.070;8.596;2022-08-19T10:43:42;100283.59;;;29.02;41.64
55070;BME280;40967;52.070;8.596;2022-08-19T10:46:09;100279.22;;;28.87;42.22
55070;BME280;40967;52.070;8.596;2022-08-19T10:48:35;100271.66;;;29.16;41.79
55070;BME280;40967;52.070;8.596;2022-08-19T10:51:01;100266.41;;;29.56;41.59
55070;BME280;40967;52.070;8.596;2022-08-19T10:53:45;100259.09;;;29.97;41.13
55070;BME280;40967;52.070;8.596;2022-08-19T10:56:11;100259.41;;;30.24;39.72
55070;BME280;40967;52.070;8.596;2022-08-19T10:58:55;100254.41;;;29.59;40.51
55070;BME280;40967;52.070;8.596;2022-08-19T11:01:22;100263.63;;;29.07;41.22
55070;BME280;40967;52.070;8.596;2022-08-19T11:03:47;100266.06;;;28.84;41.61
55070;BME280;40967;52.070;8.596;2022-08-19T11:06:12;100264.84;;;28.88;41.53
55070;BME280;40967;52.070;8.596;2022-08-19T11:08:38;100259.66;;;29.04;41.07
55070;BME280;40967;52.070;8.596;2022-08-19T11:11:05;100255.66;;;29.44;41.37
55070;BME280;40967;52.070;8.596;2022-08-19T11:13:34;100237.91;;;30.03;40.19
55070;BME280;40967;52.070;8.596;2022-08-19T11:16:04;100248.69;;;30.05;40.00
55070;BME280;40967;52.070;8.596;2022-08-19T11:18:30;100238.19;;;30.30;39.58
55070;BME280;40967;52.070;8.596;2022-08-19T11:21:05;100248.44;;;30.54;39.31
55070;BME280;40967;52.070;8.596;2022-08-19T11:23:31;100250.53;;;30.98;38.40
55070;BME280;40967;52.070;8.596;2022-08-19T11:25:56;100249.09;;;31.24;37.80
55070;BME280;40967;52.070;8.596;2022-08-19T11:28:22;100247.25;;;31.06;37.22
55070;BME280;40967;52.070;8.596;2022-08-19T11:30:47;100246.88;;;30.43;38.11
55070;BME280;40967;52.070;8.596;2022-08-19T11:33:13;100236.84;;;30.52;38.27
55070;BME280;40967;52.070;8.596;2022-08-19T11:35:39;100243.47;;;30.79;37.84
55070;BME280;40967;52.070;8.596;2022-08-19T11:38:06;100239.75;;;30.93;37.47
55070;BME280;40967;52.070;8.596;2022-08-19T11:40:31;100233.22;;;31.10;37.17
55070;BME280;40967;52.070;8.596;2022-08-19T11:42:58;100238.31;;;31.18;36.98
55070;BME280;40967;52.070;8.596;2022-08-19T11:45:26;100236.09;;;31.44;35.83
55070;BME280;40967;52.070;8.596;2022-08-19T11:47:52;100226.97;;;31.33;35.89
55070;BME280;40967;52.070;8.596;2022-08-19T11:50:18;100237.41;;;31.29;36.06
55070;BME280;40967;52.070;8.596;2022-08-19T11:52:44;100225.66;;;31.44;35.89
55070;BME280;40967;52.070;8.596;2022-08-19T11:55:11;100228.34;;;31.55;35.24
55070;BME280;40967;52.070;8.596;2022-08-19T11:57:38;100235.59;;;31.11;36.10
55070;BME280;40967;52.070;8.596;2022-08-19T12:00:06;100219.63;;;31.46;35.97
55070;BME280;40967;52.070;8.596;2022-08-19T12:02:32;100215.84;;;31.96;35.58
55070;BME280;40967;52.070;8.596;2022-08-19T12:04:58;100224.44;;;32.43;34.73
55070;BME280;40967;52.070;8.596;2022-08-19T12:07:23;100222.69;;;32.52;34.43
55070;BME280;40967;52.070;8.596;2022-08-19T12:09:49;100232.06;;;32.69;33.47
55070;BME280;40967;52.070;8.596;2022-08-19T12:12:15;100226.53;;;32.35;33.01
55070;BME280;40967;52.070;8.596;2022-08-19T12:14:41;100230.22;;;32.02;33.26
55070;BME280;40967;52.070;8.596;2022-08-19T12:17:06;100234.34;;;31.57;33.70
55070;BME280;40967;52.070;8.596;2022-08-19T12:19:33;100224.88;;;31.44;34.11
55070;BME280;40967;52.070;8.596;2022-08-19T12:22:01;100227.78;;;31.70;33.57
55070;BME280;40967;52.070;8.596;2022-08-19T12:24:30;100234.03;;;31.48;33.57
55070;BME280;40967;52.070;8.596;2022-08-19T12:26:57;100223.94;;;31.54;33.84
55070;BME280;40967;52.070;8.596;2022-08-19T12:29:23;100231.41;;;31.30;34.47
55070;BME280;40967;52.070;8.596;2022-08-19T12:31:53;100220.06;;;31.00;34.70
55070;BME280;40967;52.070;8.596;2022-08-19T12:34:19;100217.06;;;30.77;34.84
55070;BME280;40967;52.070;8.596;2022-08-19T12:36:45;100217.97;;;30.63;35.12
55070;BME280;40967;52.070;8.596;2022-08-19T12:39:10;100211.69;;;30.96;35.12
55070;BME280;40967;52.070;8.596;2022-08-19T12:41:36;100194.28;;;31.56;33.66
55070;BME280;40967;52.070;8.596;2022-08-19T12:44:02;100193.72;;;32.02;33.68
55070;BME280;40967;52.070;8.596;2022-08-19T12:46:28;100198.06;;;31.73;32.84
55070;BME280;40967;52.070;8.596;2022-08-19T12:48:53;100193.13;;;31.13;33.51
55070;BME280;40967;52.070;8.596;2022-08-19T12:51:19;100193.44;;;30.74;34.08
55070;BME280;40967;52.070;8.596;2022-08-19T12:53:46;100188.19;;;30.29;34.83
55070;BME280;40967;52.070;8.596;2022-08-19T12:56:12;100188.66;;;30.13;35.77
55070;BME280;40967;52.070;8.596;2022-08-19T12:58:40;100189.28;;;29.76;36.00
55070;BME280;40967;52.070;8.596;2022-08-19T13:01:09;100194.81;;;29.80;36.65
55070;BME280;40967;52.070;8.596;2022-08-19T13:03:35;100185.81;;;30.27;36.50
55070;BME280;40967;52.070;8.596;2022-08-19T13:06:02;100189.44;;;30.82;35.81
55070;BME280;40967;52.070;8.596;2022-08-19T13:08:27;100190.16;;;31.31;34.92